Time;durP1;ratioP1;P1;durP2;ratioP2;P2;SDS_P1;SDS_P2;PMS_P1;PMS_P2;Temp;Humidity;BMP_temperature;BMP_pressure;BME280_temperature;BME280_humidity;BME280_pressure;Samples;Min_cycle;Max_cycle;Signal;HPM_P1;HPM_P2
2022/12/14 00:00:14;;;;;;;4.80;2.07;;;;;;;;;;5117529;28;20059;-68
2022/12/14 00:02:39;;;;;;;3.60;1.60;;;;;;;;;;5119134;28;20019;-72
2022/12/14 00:05:05;;;;;;;3.07;1.13;;;;;;;;;;5119720;27;20030;-71
2022/12/14 00:07:30;;;;;;;1.40;0.90;;;;;;;;;;5117221;28;20047;-70
2022/12/14 00:09:55;;;;;;;1.37;0.87;;;;;;;;;;5115903;28;20042;-71
2022/12/14 00:12:21;;;;;;;4.37;1.73;;;;;;;;;;5115220;28;20068;-71
2022/12/14 00:14:46;;;;;;;2.53;1.40;;;;;;;;;;5115196;28;20024;-68
2022/12/14 00:17:11;;;;;;;2.27;1.27;;;;;;;;;;5115017;28;20019;-69
2022/12/14 00:19:37;;;;;;;2.77;1.13;;;;;;;;;;5116506;28;20020;-68
2022/12/14 00:22:02;;;;;;;3.27;0.70;;;;;;;;;;5116583;28;20031;-70
2022/12/14 00:24:27;;;;;;;3.60;1.70;;;;;;;;;;5116152;28;20019;-71
2022/12/14 00:26:53;;;;;;;1.60;1.13;;;;;;;;;;5116337;28;20080;-71
2022/12/14 00:29:18;;;;;;;2.70;1.50;;;;;;;;;;5116451;28;20062;-69
2022/12/14 00:31:44;;;;;;;3.73;1.10;;;;;;;;;;5115530;28;20055;-69
2022/12/14 00:34:09;;;;;;;3.80;0.97;;;;;;;;;;5116032;28;20020;-67
2022/12/14 00:36:36;;;;;;;4.20;0.50;;;;;;;;;;5117109;28;20015;-69
2022/12/14 00:39:01;;;;;;;2.77;1.03;;;;;;;;;;5116510;28;20016;-69
2022/12/14 00:41:27;;;;;;;3.37;1.20;;;;;;;;;;5117190;28;20502;-69
2022/12/14 00:43:52;;;;;;;1.23;0.40;;;;;;;;;;5118769;28;20039;-69
2022/12/14 00:46:19;;;;;;;1.27;0.80;;;;;;;;;;5117279;28;20420;-69
2022/12/14 00:48:45;;;;;;;3.03;1.00;;;;;;;;;;5118383;28;20027;-69
2022/12/14 00:51:13;;;;;;;2.87;1.27;;;;;;;;;;5117128;28;20515;-68
2022/12/14 00:53:38;;;;;;;2.00;1.00;;;;;;;;;;5118037;28;20027;-70
2022/12/14 00:56:06;;;;;;;5.23;1.50;;;;;;;;;;5118107;28;20391;-68
2022/12/14 00:58:31;;;;;;;4.37;1.40;;;;;;;;;;5118408;28;20081;-71
2022/12/14 01:00:57;;;;;;;2.60;0.80;;;;;;;;;;5113934;28;20475;-69
2022/12/14 01:03:23;;;;;;;2.47;0.73;;;;;;;;;;5113835;28;20512;-67
2022/12/14 01:05:48;;;;;;;3.53;1.70;;;;;;;;;;5113669;28;20019;-69
2022/12/14 01:08:14;;;;;;;3.23;1.20;;;;;;;;;;5113530;28;20016;-69
2022/12/14 01:10:39;;;;;;;2.97;1.30;;;;;;;;;;5113078;28;20024;-69
2022/12/14 01:13:05;;;;;;;2.37;1.20;;;;;;;;;;5113493;28;20106;-69
2022/12/14 01:15:30;;;;;;;1.80;0.73;;;;;;;;;;5113712;28;20115;-69
2022/12/14 01:17:56;;;;;;;2.93;1.27;;;;;;;;;;5115054;28;20099;-68
2022/12/14 01:20:21;;;;;;;4.90;1.63;;;;;;;;;;5113614;28;20059;-73
2022/12/14 01:22:46;;;;;;;2.80;1.43;;;;;;;;;;5113836;28;20456;-68
2022/12/14 01:25:12;;;;;;;4.80;1.40;;;;;;;;;;5112912;28;20048;-68
2022/12/14 01:27:37;;;;;;;1.97;1.13;;;;;;;;;;5113695;28;20026;-69
2022/12/14 01:30:03;;;;;;;3.40;1.20;;;;;;;;;;5113454;28;20460;-69
2022/12/14 01:32:29;;;;;;;2.63;1.17;;;;;;;;;;5112748;28;20090;-68
2022/12/14 01:34:54;;;;;;;2.03;1.00;;;;;;;;;;5113151;28;20046;-72
2022/12/14 01:37:19;;;;;;;1.37;0.80;;;;;;;;;;5114142;28;20379;-68
2022/12/14 01:39:45;;;;;;;2.60;1.00;;;;;;;;;;5112818;28;20027;-70
2022/12/14 01:42:11;;;;;;;2.47;0.60;;;;;;;;;;5114240;28;20077;-69
2022/12/14 01:44:39;;;;;;;1.90;0.90;;;;;;;;;;5113262;28;20027;-68
2022/12/14 01:47:16;;;;;;;1.53;0.70;;;;;;;;;;5114825;28;20028;-69
2022/12/14 01:49:48;;;;;;;3.07;1.43;;;;;;;;;;5116837;28;20020;-69
2022/12/14 01:52:26;;;;;;;2.17;1.10;;;;;;;;;;5115540;28;20114;-68
2022/12/14 01:55:11;;;;;;;2.73;0.90;;;;;;;;;;5115729;28;20047;-67
2022/12/14 01:57:37;;;;;;;;;;;;;;;;;;5114135;28;20060;-68
2022/12/14 02:00:03;;;;;;;1.97;1.10;;;;;;;;;;5115932;28;19931;-68
2022/12/14 02:02:29;;;;;;;3.93;1.27;;;;;;;;;;5113163;28;20048;-67
2022/12/14 02:04:57;;;;;;;2.73;1.70;;;;;;;;;;5115699;28;20107;-69
2022/12/14 02:07:24;;;;;;;2.37;1.27;;;;;;;;;;5115018;28;20012;-72
2022/12/14 02:09:51;;;;;;;5.00;2.10;;;;;;;;;;5113595;28;20026;-70
2022/12/14 02:12:19;;;;;;;5.53;2.20;;;;;;;;;;5112919;28;20019;-68
2022/12/14 02:14:45;;;;;;;3.10;1.37;;;;;;;;;;5112648;28;20023;-67
2022/12/14 02:17:11;;;;;;;4.17;1.50;;;;;;;;;;5112019;28;20553;-68
2022/12/14 02:19:37;;;;;;;5.10;1.93;;;;;;;;;;5112266;28;20026;-70
2022/12/14 02:22:11;;;;;;;48.83;4.03;;;;;;;;;;5113102;28;20031;-68
2022/12/14 02:24:41;;;;;;;3.33;1.38;;;;;;;;;;5113291;28;20118;-67
2022/12/14 02:27:12;;;;;;;4.90;2.13;;;;;;;;;;5113731;28;20495;-67
2022/12/14 02:29:44;;;;;;;3.97;1.80;;;;;;;;;;5112788;28;20106;-69
2022/12/14 02:32:13;;;;;;;3.43;1.50;;;;;;;;;;5114348;28;20127;-68
2022/12/14 02:34:45;;;;;;;2.80;1.33;;;;;;;;;;5112577;28;20023;-69
2022/12/14 02:37:16;;;;;;;5.30;1.40;;;;;;;;;;5112386;28;20019;-69
2022/12/14 02:39:54;;;;;;;4.80;2.07;;;;;;;;;;5112022;28;20019;-67
2022/12/14 02:42:24;;;;;;;4.93;1.97;;;;;;;;;;5111955;28;20028;-67
2022/12/14 02:45:08;;;;;;;3.40;1.60;;;;;;;;;;5113950;28;20016;-68
2022/12/14 02:47:47;;;;;;;3.67;2.23;;;;;;;;;;5112161;28;20444;-68
2022/12/14 02:50:12;;;;;;;4.10;1.80;;;;;;;;;;5112078;28;20019;-67
2022/12/14 02:52:47;;;;;;;8.70;2.07;;;;;;;;;;5113741;28;20078;-67
2022/12/14 02:55:20;;;;;;;2.33;1.30;;;;;;;;;;5112225;28;20119;-68
2022/12/14 02:57:48;;;;;;;5.20;1.97;;;;;;;;;;5114486;28;20051;-72
2022/12/14 03:00:14;;;;;;;4.10;1.77;;;;;;;;;;5114888;28;20035;-68
2022/12/14 03:02:41;;;;;;;7.20;2.50;;;;;;;;;;5117740;28;20020;-70
2022/12/14 03:05:06;;;;;;;3.50;2.20;;;;;;;;;;5119928;28;20090;-69
2022/12/14 03:07:32;;;;;;;5.47;2.67;;;;;;;;;;5119149;28;20428;-68
2022/12/14 03:10:08;;;;;;;3.83;2.10;;;;;;;;;;5118665;28;20464;-70
2022/12/14 03:12:34;;;;;;;2.73;1.47;;;;;;;;;;5118515;28;20098;-70
2022/12/14 03:15:02;;;;;;;3.57;1.60;;;;;;;;;;5118005;28;20099;-70
2022/12/14 03:17:29;;;;;;;4.30;2.07;;;;;;;;;;5115930;28;20016;-68
2022/12/14 03:20:00;;;;;;;2.87;1.63;;;;;;;;;;5116412;28;20020;-68
2022/12/14 03:22:29;;;;;;;2.30;1.20;;;;;;;;;;5116441;28;20020;-68
2022/12/14 03:24:58;;;;;;;4.67;1.27;;;;;;;;;;5117659;28;20024;-67
2022/12/14 03:27:30;;;;;;;2.17;1.30;;;;;;;;;;5116551;28;20027;-68
2022/12/14 03:29:58;;;;;;;2.30;1.23;;;;;;;;;;5115675;28;20023;-68
2022/12/14 03:32:25;;;;;;;1.83;1.40;;;;;;;;;;5118331;28;20051;-69
2022/12/14 03:35:13;;;;;;;4.20;1.63;;;;;;;;;;5120305;28;20016;-70
2022/12/14 03:37:48;;;;;;;3.80;1.90;;;;;;;;;;5096597;28;20042;-69
2022/12/14 03:40:13;;;;;;;4.82;1.88;;;;;;;;;;5115144;28;20027;-67
2022/12/14 03:42:57;;;;;;;2.53;1.13;;;;;;;;;;5115296;28;20391;-67
2022/12/14 03:45:27;;;;;;;2.70;1.57;;;;;;;;;;5116459;28;20023;-69
2022/12/14 03:47:52;;;;;;;3.60;1.50;;;;;;;;;;5116605;28;20023;-69
2022/12/14 03:50:36;;;;;;;4.77;1.57;;;;;;;;;;5115237;28;20039;-67
2022/12/14 03:53:05;;;;;;;2.70;1.13;;;;;;;;;;5116346;28;20456;-72
2022/12/14 03:55:35;;;;;;;3.67;1.60;;;;;;;;;;5114779;28;20031;-68
2022/12/14 03:58:13;;;;;;;3.87;1.03;;;;;;;;;;5115081;28;20106;-68
2022/12/14 04:00:47;;;;;;;2.70;1.70;;;;;;;;;;5115299;28;20125;-68
2022/12/14 04:03:51;;;;;;;3.50;1.67;;;;;;;;;;5116256;28;20015;-68
2022/12/14 04:06:19;;;;;;;4.63;1.27;;;;;;;;;;5093360;28;20028;-68
2022/12/14 04:08:52;;;;;;;2.97;1.60;;;;;;;;;;5076465;28;20135;-70
2022/12/14 04:19:49;;;;;;;6.97;3.20;;;;;;;;;;5115767;28;20069;-68
2022/12/14 04:22:17;;;;;;;3.37;2.00;;;;;;;;;;5114278;28;20032;-69
2022/12/14 04:27:41;;;;;;;4.67;1.60;;;;;;;;;;5117950;28;20076;-68
2022/12/14 04:30:07;;;;;;;22.33;3.00;;;;;;;;;;5116326;28;20016;-68
2022/12/14 04:32:47;;;;;;;3.30;1.23;;;;;;;;;;5113993;28;20051;-69
2022/12/14 04:35:22;;;;;;;5.67;2.30;;;;;;;;;;5116355;27;20076;-67
2022/12/14 04:37:54;;;;;;;4.05;2.05;;;;;;;;;;5114641;28;20028;-70
2022/12/14 04:40:24;;;;;;;14.63;2.97;;;;;;;;;;5114544;28;20465;-71
2022/12/14 04:43:01;;;;;;;5.10;2.40;;;;;;;;;;5114465;28;20042;-69
2022/12/14 04:45:29;;;;;;;5.07;2.27;;;;;;;;;;5115188;28;20027;-67
2022/12/14 04:48:13;;;;;;;8.27;2.93;;;;;;;;;;5115322;28;20051;-69
2022/12/14 04:50:41;;;;;;;12.27;3.73;;;;;;;;;;5114471;28;20015;-68
2022/12/14 04:53:10;;;;;;;11.20;4.23;;;;;;;;;;5114121;28;20039;-70
2022/12/14 04:55:48;;;;;;;15.30;5.30;;;;;;;;;;5115364;28;20016;-68
2022/12/14 04:58:18;;;;;;;8.70;3.40;;;;;;;;;;5114162;28;20016;-67
2022/12/14 05:00:55;;;;;;;27.13;6.20;;;;;;;;;;5114391;28;20130;-73
2022/12/14 05:03:21;;;;;;;4.87;2.33;;;;;;;;;;5116004;28;20016;-70
2022/12/14 05:05:53;;;;;;;14.57;3.80;;;;;;;;;;5115229;28;20058;-69
2022/12/14 05:08:18;;;;;;;6.23;2.90;;;;;;;;;;5113794;28;20028;-69
2022/12/14 05:10:46;;;;;;;6.90;3.17;;;;;;;;;;5113706;28;20517;-69
2022/12/14 05:13:11;;;;;;;5.03;2.83;;;;;;;;;;5113563;28;20148;-69
2022/12/14 05:15:46;;;;;;;4.83;2.23;;;;;;;;;;5114880;28;20099;-68
2022/12/14 05:18:11;;;;;;;5.57;2.13;;;;;;;;;;5116470;28;20076;-70
2022/12/14 05:20:37;;;;;;;8.03;3.57;;;;;;;;;;5114689;28;20073;-69
2022/12/14 05:23:02;;;;;;;9.50;3.70;;;;;;;;;;5113223;28;20054;-69
2022/12/14 05:25:27;;;;;;;13.20;3.00;;;;;;;;;;5113793;28;20068;-69
2022/12/14 05:27:53;;;;;;;7.43;3.43;;;;;;;;;;5113133;28;20015;-69
2022/12/14 05:30:19;;;;;;;6.00;2.83;;;;;;;;;;5114068;28;20082;-70
2022/12/14 05:32:45;;;;;;;6.80;2.77;;;;;;;;;;5113172;28;20070;-68
2022/12/14 05:35:11;;;;;;;13.60;3.37;;;;;;;;;;5113439;28;20535;-68
2022/12/14 05:37:36;;;;;;;8.30;3.13;;;;;;;;;;5113245;28;20111;-67
2022/12/14 05:40:02;;;;;;;7.67;3.10;;;;;;;;;;5114188;28;20018;-67
2022/12/14 05:42:27;;;;;;;7.60;3.23;;;;;;;;;;5114017;28;20600;-69
2022/12/14 05:44:53;;;;;;;7.43;2.90;;;;;;;;;;5113153;28;20019;-69
2022/12/14 05:47:18;;;;;;;5.33;2.77;;;;;;;;;;5114075;28;20047;-69
2022/12/14 05:49:44;;;;;;;4.97;2.23;;;;;;;;;;5112504;28;20024;-67
2022/12/14 05:52:09;;;;;;;3.77;2.23;;;;;;;;;;5113709;28;20080;-68
2022/12/14 05:54:35;;;;;;;4.77;2.23;;;;;;;;;;5112547;28;20051;-67
2022/12/14 05:57:00;;;;;;;4.93;2.60;;;;;;;;;;5114045;28;20024;-67
2022/12/14 05:59:25;;;;;;;2.57;1.80;;;;;;;;;;5112286;28;20030;-69
2022/12/14 06:01:51;;;;;;;3.40;2.00;;;;;;;;;;5114470;28;20072;-68
2022/12/14 06:04:17;;;;;;;3.33;1.83;;;;;;;;;;5115724;28;20026;-68
2022/12/14 06:06:42;;;;;;;4.67;2.47;;;;;;;;;;5115386;28;20096;-70
2022/12/14 06:09:08;;;;;;;4.20;2.07;;;;;;;;;;5114778;28;20099;-69
2022/12/14 06:11:38;;;;;;;5.87;2.23;;;;;;;;;;5113665;28;20043;-70
2022/12/14 06:14:04;;;;;;;4.47;1.50;;;;;;;;;;5113928;28;20494;-69
2022/12/14 06:16:29;;;;;;;2.60;1.50;;;;;;;;;;5113385;28;20011;-70
2022/12/14 06:18:56;;;;;;;4.77;2.10;;;;;;;;;;5112666;28;20027;-69
2022/12/14 06:21:29;;;;;;;3.83;2.10;;;;;;;;;;5111144;28;20361;-70
2022/12/14 06:23:55;;;;;;;2.80;1.90;;;;;;;;;;5112463;28;20027;-69
2022/12/14 06:26:21;;;;;;;2.57;1.80;;;;;;;;;;5112640;28;20051;-68
2022/12/14 06:28:48;;;;;;;4.60;1.73;;;;;;;;;;5114443;28;20352;-71
2022/12/14 06:31:15;;;;;;;5.37;2.33;;;;;;;;;;5111634;28;20513;-70
2022/12/14 06:33:41;;;;;;;5.70;2.23;;;;;;;;;;5112121;28;20015;-70
2022/12/14 06:36:15;;;;;;;4.10;2.37;;;;;;;;;;5112672;28;20015;-69
2022/12/14 06:38:40;;;;;;;5.63;2.63;;;;;;;;;;5111994;28;20464;-69
2022/12/14 06:41:09;;;;;;;8.40;3.60;;;;;;;;;;5112709;28;20027;-68
2022/12/14 06:43:34;;;;;;;5.67;2.73;;;;;;;;;;5111123;28;20122;-71
2022/12/14 06:46:00;;;;;;;4.20;2.17;;;;;;;;;;5111330;28;20022;-69
2022/12/14 06:48:25;;;;;;;5.47;2.50;;;;;;;;;;5111687;28;20059;-69
2022/12/14 06:50:50;;;;;;;4.40;2.57;;;;;;;;;;5111694;28;20066;-68
2022/12/14 06:53:16;;;;;;;4.07;2.40;;;;;;;;;;5111518;28;20024;-69
2022/12/14 06:55:41;;;;;;;4.30;2.57;;;;;;;;;;5111435;28;20016;-69
2022/12/14 06:58:10;;;;;;;5.30;2.50;;;;;;;;;;5112060;28;20026;-68
2022/12/14 07:00:35;;;;;;;3.60;2.20;;;;;;;;;;5110505;28;20028;-68
2022/12/14 07:03:01;;;;;;;4.57;2.30;;;;;;;;;;5110174;28;20020;-69
2022/12/14 07:05:26;;;;;;;4.93;2.57;;;;;;;;;;5111198;28;20391;-70
2022/12/14 07:07:52;;;;;;;4.17;2.53;;;;;;;;;;5110769;28;20051;-69
2022/12/14 07:10:17;;;;;;;4.57;2.70;;;;;;;;;;5112479;28;20011;-73
2022/12/14 07:12:42;;;;;;;5.47;3.67;;;;;;;;;;5113770;28;20016;-70
2022/12/14 07:15:08;;;;;;;11.73;3.63;;;;;;;;;;5111460;28;20019;-70
2022/12/14 07:17:35;;;;;;;5.17;2.30;;;;;;;;;;5112292;28;20049;-70
2022/12/14 07:20:02;;;;;;;6.23;2.97;;;;;;;;;;5110230;28;20015;-69
2022/12/14 07:22:27;;;;;;;4.87;2.60;;;;;;;;;;5112115;28;20465;-69
2022/12/14 07:24:53;;;;;;;4.87;2.87;;;;;;;;;;5111808;28;20104;-69
2022/12/14 07:27:18;;;;;;;7.17;3.40;;;;;;;;;;5111904;28;20069;-69
2022/12/14 07:29:43;;;;;;;5.27;3.00;;;;;;;;;;5110465;28;20019;-69
2022/12/14 07:32:09;;;;;;;6.80;3.17;;;;;;;;;;5109987;28;20043;-68
2022/12/14 07:34:34;;;;;;;15.60;3.17;;;;;;;;;;5110652;28;20491;-69
2022/12/14 07:37:00;;;;;;;51.97;7.47;;;;;;;;;;5111671;28;20436;-70
2022/12/14 07:39:25;;;;;;;8.50;3.63;;;;;;;;;;5112120;28;20098;-68
2022/12/14 07:41:53;;;;;;;16.10;4.40;;;;;;;;;;5112371;28;20111;-71
2022/12/14 07:44:18;;;;;;;8.47;3.97;;;;;;;;;;5112537;28;20076;-70
2022/12/14 07:46:44;;;;;;;6.03;3.80;;;;;;;;;;5113200;28;20012;-70
2022/12/14 07:49:11;;;;;;;13.80;3.47;;;;;;;;;;5114339;28;20027;-68
2022/12/14 07:51:39;;;;;;;7.13;4.10;;;;;;;;;;5113851;28;20098;-69
2022/12/14 07:54:06;;;;;;;15.40;4.43;;;;;;;;;;5115496;28;20111;-70
2022/12/14 07:56:33;;;;;;;5.53;3.63;;;;;;;;;;5114879;28;20069;-70
2022/12/14 07:58:59;;;;;;;19.00;5.37;;;;;;;;;;5118029;28;20019;-69
2022/12/14 08:01:25;;;;;;;10.17;4.23;;;;;;;;;;5115068;28;20028;-71
2022/12/14 08:04:11;;;;;;;13.43;4.23;;;;;;;;;;5116289;28;20035;-70
2022/12/14 08:06:36;;;;;;;7.93;3.70;;;;;;;;;;5115472;28;20102;-71
2022/12/14 08:09:02;;;;;;;8.10;3.90;;;;;;;;;;5115373;28;20556;-68
2022/12/14 08:11:28;;;;;;;9.20;4.93;;;;;;;;;;5117022;28;20030;-73
2022/12/14 08:13:54;;;;;;;8.30;4.00;;;;;;;;;;5114944;28;20370;-70
2022/12/14 08:16:19;;;;;;;6.57;3.97;;;;;;;;;;5115007;28;20016;-70
2022/12/14 08:18:45;;;;;;;7.80;4.47;;;;;;;;;;5116519;28;20027;-71
2022/12/14 08:21:11;;;;;;;7.43;3.60;;;;;;;;;;5115383;27;20376;-70
2022/12/14 08:23:37;;;;;;;7.00;3.97;;;;;;;;;;5114526;28;20023;-70
2022/12/14 08:26:03;;;;;;;6.77;3.70;;;;;;;;;;5116074;28;20015;-69
2022/12/14 08:28:30;;;;;;;6.10;3.90;;;;;;;;;;5114520;28;20474;-70
2022/12/14 08:30:56;;;;;;;5.20;3.73;;;;;;;;;;5115509;28;20047;-69
2022/12/14 08:33:23;;;;;;;6.73;4.20;;;;;;;;;;5113523;28;20051;-70
2022/12/14 08:35:49;;;;;;;6.93;3.87;;;;;;;;;;5113872;28;20471;-70
2022/12/14 08:38:15;;;;;;;7.97;4.00;;;;;;;;;;5114365;28;20077;-70
2022/12/14 08:40:40;;;;;;;33.20;6.10;;;;;;;;;;5113885;28;20074;-70
2022/12/14 08:43:06;;;;;;;7.23;4.20;;;;;;;;;;5113835;28;20492;-69
2022/12/14 08:45:32;;;;;;;7.10;3.70;;;;;;;;;;5113673;28;20365;-69
2022/12/14 08:47:58;;;;;;;5.43;3.80;;;;;;;;;;5113523;28;20459;-70
2022/12/14 08:50:23;;;;;;;6.90;3.93;;;;;;;;;;5114550;28;20072;-71
2022/12/14 08:52:49;;;;;;;21.47;3.93;;;;;;;;;;5113392;28;20020;-70
2022/12/14 08:55:14;;;;;;;6.73;4.37;;;;;;;;;;5113042;28;20026;-69
2022/12/14 08:57:40;;;;;;;4.50;3.20;;;;;;;;;;5113787;28;20048;-69
2022/12/14 09:00:08;;;;;;;5.37;3.20;;;;;;;;;;5112325;28;20019;-69
2022/12/14 09:02:33;;;;;;;6.17;3.43;;;;;;;;;;5115572;28;20372;-72
2022/12/14 09:04:59;;;;;;;5.90;3.50;;;;;;;;;;5112902;28;20020;-70
2022/12/14 09:07:24;;;;;;;6.97;4.27;;;;;;;;;;5114263;28;20019;-73
2022/12/14 09:09:51;;;;;;;5.77;3.33;;;;;;;;;;5113832;28;20015;-69
2022/12/14 09:12:16;;;;;;;6.40;3.70;;;;;;;;;;5113016;28;20016;-68
2022/12/14 09:14:45;;;;;;;9.60;3.53;;;;;;;;;;5113892;28;20065;-70
2022/12/14 09:17:11;;;;;;;7.97;3.77;;;;;;;;;;5112990;28;20038;-70
2022/12/14 09:19:36;;;;;;;6.87;3.70;;;;;;;;;;5112724;28;20471;-71
2022/12/14 09:22:02;;;;;;;5.70;3.60;;;;;;;;;;5112826;28;20050;-69
2022/12/14 09:24:28;;;;;;;9.50;4.40;;;;;;;;;;5112567;28;20467;-69
2022/12/14 09:26:53;;;;;;;7.77;3.77;;;;;;;;;;5113780;28;20020;-69
2022/12/14 09:29:19;;;;;;;7.40;4.43;;;;;;;;;;5112060;28;20054;-72
2022/12/14 09:31:45;;;;;;;5.80;3.17;;;;;;;;;;5113972;28;20518;-70
2022/12/14 09:34:10;;;;;;;6.90;4.53;;;;;;;;;;5113030;28;20115;-70
2022/12/14 09:36:36;;;;;;;6.03;4.03;;;;;;;;;;5112346;28;20024;-68
2022/12/14 09:39:02;;;;;;;6.60;4.03;;;;;;;;;;5112390;28;20474;-69
2022/12/14 09:41:34;;;;;;;12.40;4.43;;;;;;;;;;5112365;28;20111;-69
2022/12/14 09:44:00;;;;;;;15.73;6.03;;;;;;;;;;5112956;28;20468;-70
2022/12/14 09:46:44;;;;;;;10.37;4.70;;;;;;;;;;5114017;28;20019;-69
2022/12/14 09:49:19;;;;;;;10.10;4.77;;;;;;;;;;5111966;28;20028;-70
2022/12/14 09:51:45;;;;;;;7.50;3.58;;;;;;;;;;5113350;28;20091;-69
2022/12/14 09:54:14;;;;;;;10.40;3.90;;;;;;;;;;5111762;28;20123;-68
2022/12/14 09:56:41;;;;;;;8.13;4.30;;;;;;;;;;5113442;28;20019;-69
2022/12/14 09:59:11;;;;;;;5.40;3.53;;;;;;;;;;5111515;28;20027;-70
2022/12/14 10:01:40;;;;;;;7.67;4.10;;;;;;;;;;5112056;28;20078;-70
2022/12/14 10:04:13;;;;;;;5.27;3.40;;;;;;;;;;5111542;28;20077;-70
2022/12/14 10:06:38;;;;;;;5.83;3.93;;;;;;;;;;5111605;28;20077;-71
2022/12/14 10:09:20;;;;;;;9.57;4.50;;;;;;;;;;5111351;28;20475;-70
2022/12/14 10:11:51;;;;;;;7.60;4.17;;;;;;;;;;5111681;28;20020;-70
2022/12/14 10:14:34;;;;;;;10.40;3.90;;;;;;;;;;5111563;28;20447;-71
2022/12/14 10:17:28;;;;;;;27.97;10.73;;;;;;;;;;5111733;28;20459;-71
2022/12/14 10:19:56;;;;;;;33.83;5.67;;;;;;;;;;5108444;28;20044;-71
2022/12/14 10:22:23;;;;;;;11.00;4.43;;;;;;;;;;5110524;28;20036;-70
2022/12/14 10:25:04;;;;;;;9.33;4.50;;;;;;;;;;5110262;28;20012;-69
2022/12/14 10:27:30;;;;;;;7.47;4.73;;;;;;;;;;5110501;28;20019;-71
2022/12/14 10:29:59;;;;;;;22.40;5.63;;;;;;;;;;5111992;28;20467;-70
2022/12/14 10:32:44;;;;;;;12.50;5.37;;;;;;;;;;5109784;28;20048;-70
2022/12/14 10:35:09;;;;;;;;;;;;;;;;;;5111470;28;20023;-70
2022/12/14 10:37:38;;;;;;;9.93;4.63;;;;;;;;;;5110049;28;19910;-70
2022/12/14 10:40:09;;;;;;;8.00;4.77;;;;;;;;;;5110186;28;20022;-69
2022/12/14 10:42:35;;;;;;;8.67;5.27;;;;;;;;;;5110155;28;20114;-69
2022/12/14 10:45:13;;;;;;;9.27;5.40;;;;;;;;;;5110705;28;20467;-69
2022/12/14 10:47:51;;;;;;;10.80;4.70;;;;;;;;;;5110683;28;20039;-68
2022/12/14 10:50:21;;;;;;;9.20;4.60;;;;;;;;;;5112336;28;20019;-70
2022/12/14 10:52:49;;;;;;;7.97;4.17;;;;;;;;;;5110772;28;20482;-70
2022/12/14 10:55:19;;;;;;;8.77;4.07;;;;;;;;;;5110950;28;20380;-70
2022/12/14 10:57:44;;;;;;;9.20;4.17;;;;;;;;;;5110509;28;20020;-70
2022/12/14 11:00:14;;;;;;;9.30;5.67;;;;;;;;;;5110754;28;20026;-70
2022/12/14 11:02:41;;;;;;;7.80;3.73;;;;;;;;;;5111949;28;20027;-69
2022/12/14 11:05:26;;;;;;;10.43;5.00;;;;;;;;;;5112515;28;20039;-70
2022/12/14 11:07:55;;;;;;;8.00;4.13;;;;;;;;;;5112864;28;20102;-70
2022/12/14 11:10:26;;;;;;;33.03;9.00;;;;;;;;;;5112064;28;20024;-70
2022/12/14 11:12:51;;;;;;;8.97;4.03;;;;;;;;;;5111165;28;20031;-70
2022/12/14 11:15:25;;;;;;;9.70;4.43;;;;;;;;;;5111437;28;20019;-70
2022/12/14 11:18:20;;;;;;;11.23;5.47;;;;;;;;;;5110648;28;20069;-70
2022/12/14 11:20:53;;;;;;;12.07;4.70;;;;;;;;;;5101718;28;20044;-70
2022/12/14 11:23:30;;;;;;;6.43;3.90;;;;;;;;;;5111692;28;20116;-69
2022/12/14 11:26:02;;;;;;;5.80;3.30;;;;;;;;;;5116080;28;20136;-69
2022/12/14 11:28:46;;;;;;;6.53;4.33;;;;;;;;;;5114654;28;20114;-69
2022/12/14 11:31:23;;;;;;;6.87;3.37;;;;;;;;;;5114497;28;20016;-69
2022/12/14 11:33:48;;;;;;;8.63;3.27;;;;;;;;;;5114404;28;20032;-69
2022/12/14 11:36:23;;;;;;;6.73;3.40;;;;;;;;;;5114850;28;20153;-69
2022/12/14 11:38:56;;;;;;;7.65;3.42;;;;;;;;;;5114069;28;20498;-69
2022/12/14 11:41:22;;;;;;;10.03;3.50;;;;;;;;;;5114240;28;20502;-69
2022/12/14 11:44:21;;;;;;;10.10;3.87;;;;;;;;;;5114409;28;20046;-70
2022/12/14 11:46:49;;;;;;;7.47;3.73;;;;;;;;;;5103185;28;20040;-69
2022/12/14 11:49:23;;;;;;;4.17;2.60;;;;;;;;;;5114405;28;20020;-69
2022/12/14 11:52:03;;;;;;;12.03;4.23;;;;;;;;;;5114011;28;20030;-69
2022/12/14 11:54:30;;;;;;;8.20;3.43;;;;;;;;;;5114345;28;20399;-70
2022/12/14 11:56:59;;;;;;;12.17;3.53;;;;;;;;;;5114075;28;20023;-74
2022/12/14 11:59:28;;;;;;;7.77;3.20;;;;;;;;;;5114513;28;20081;-70
2022/12/14 12:01:55;;;;;;;7.63;2.70;;;;;;;;;;5115183;28;20495;-69
2022/12/14 12:04:22;;;;;;;4.43;2.63;;;;;;;;;;5114859;28;20026;-70
2022/12/14 12:06:48;;;;;;;5.47;2.60;;;;;;;;;;5114704;28;20030;-71
2022/12/14 12:09:26;;;;;;;7.77;3.40;;;;;;;;;;5113774;28;20024;-70
2022/12/14 12:11:53;;;;;;;4.53;2.80;;;;;;;;;;5114196;28;20376;-69
2022/12/14 12:14:28;;;;;;;5.13;2.73;;;;;;;;;;5114201;28;20054;-69
2022/12/14 12:16:54;;;;;;;4.72;2.65;;;;;;;;;;5115533;27;20011;-69
2022/12/14 12:19:32;;;;;;;7.93;2.67;;;;;;;;;;5114957;28;20050;-70
2022/12/14 12:22:02;;;;;;;4.23;2.40;;;;;;;;;;5114167;28;20059;-69
2022/12/14 12:24:30;;;;;;;3.87;2.30;;;;;;;;;;5115291;28;20020;-70
2022/12/14 12:27:01;;;;;;;8.23;3.13;;;;;;;;;;5113901;28;20029;-79
2022/12/14 12:29:32;;;;;;;4.37;2.40;;;;;;;;;;5115594;28;20024;-69
2022/12/14 12:32:02;;;;;;;8.13;3.67;;;;;;;;;;5113860;28;20047;-69
2022/12/14 12:34:32;;;;;;;5.17;2.40;;;;;;;;;;5113683;28;20024;-69
2022/12/14 12:36:59;;;;;;;6.67;2.13;;;;;;;;;;5114889;28;20023;-70
2022/12/14 12:39:26;;;;;;;8.33;2.17;;;;;;;;;;5113933;28;20020;-69
2022/12/14 12:42:11;;;;;;;7.27;2.47;;;;;;;;;;5113188;28;20544;-69
2022/12/14 12:44:37;;;;;;;;;;;;;;;;;;5092901;28;20031;-68
2022/12/14 12:47:13;;;;;;;5.47;2.33;;;;;;;;;;5114783;28;19910;-70
2022/12/14 12:49:38;;;;;;;7.17;2.47;;;;;;;;;;5116272;28;20475;-69
2022/12/14 12:52:06;;;;;;;4.03;2.73;;;;;;;;;;5118173;28;20011;-72
2022/12/14 12:54:46;;;;;;;5.17;2.70;;;;;;;;;;5116199;28;20019;-70
2022/12/14 12:57:12;;;;;;;14.33;5.43;;;;;;;;;;5114698;28;20032;-69
2022/12/14 12:59:40;;;;;;;3.67;1.97;;;;;;;;;;5114014;28;20023;-70
2022/12/14 13:02:15;;;;;;;3.93;2.17;;;;;;;;;;5113608;28;20031;-70
2022/12/14 13:04:42;;;;;;;5.97;2.30;;;;;;;;;;5113193;28;20027;-68
2022/12/14 13:07:16;;;;;;;4.87;2.17;;;;;;;;;;5113135;28;20392;-69
2022/12/14 13:09:47;;;;;;;3.63;1.65;;;;;;;;;;5114133;28;20464;-69
2022/12/14 13:12:31;;;;;;;3.90;2.30;;;;;;;;;;5113642;28;20024;-70
2022/12/14 13:14:58;;;;;;;8.47;2.37;;;;;;;;;;5114295;28;20046;-73
2022/12/14 13:17:38;;;;;;;4.20;1.93;;;;;;;;;;5113330;28;20019;-69
2022/12/14 13:20:28;;;;;;;3.03;1.90;;;;;;;;;;5113395;28;20581;-69
2022/12/14 13:22:54;;;;;;;3.67;2.40;;;;;;;;;;5108625;28;20454;-69
2022/12/14 13:25:21;;;;;;;4.53;2.20;;;;;;;;;;5114648;28;20019;-69
2022/12/14 13:27:59;;;;;;;4.57;3.10;;;;;;;;;;5112855;28;20023;-68
2022/12/14 13:30:24;;;;;;;4.00;2.37;;;;;;;;;;5113898;28;20064;-66
2022/12/14 13:32:50;;;;;;;4.57;1.93;;;;;;;;;;5112532;28;20052;-68
2022/12/14 13:35:23;;;;;;;3.50;1.93;;;;;;;;;;5112726;28;20495;-69
2022/12/14 13:37:57;;;;;;;5.07;2.70;;;;;;;;;;5112417;28;20046;-68
2022/12/14 13:40:29;;;;;;;5.57;2.28;;;;;;;;;;5112036;28;20020;-69
2022/12/14 13:42:57;;;;;;;5.03;2.60;;;;;;;;;;5113434;28;20531;-70
2022/12/14 13:45:28;;;;;;;21.70;2.53;;;;;;;;;;5111681;28;20106;-71
2022/12/14 13:47:56;;;;;;;3.83;2.23;;;;;;;;;;5112153;28;20088;-70
2022/12/14 13:50:30;;;;;;;3.70;2.07;;;;;;;;;;5112173;28;20015;-70
2022/12/14 13:53:00;;;;;;;66.17;5.37;;;;;;;;;;5113746;28;20121;-70
2022/12/14 13:55:34;;;;;;;4.47;2.37;;;;;;;;;;5112692;28;20030;-72
2022/12/14 13:58:09;;;;;;;9.07;5.90;;;;;;;;;;5111802;28;20027;-69
2022/12/14 14:00:47;;;;;;;5.10;2.53;;;;;;;;;;5113083;28;20034;-68
2022/12/14 14:03:30;;;;;;;5.43;2.50;;;;;;;;;;5114154;28;20031;-69
2022/12/14 14:05:59;;;;;;;4.77;2.30;;;;;;;;;;5111557;28;20027;-69
2022/12/14 14:08:32;;;;;;;13.87;3.00;;;;;;;;;;5112813;28;20045;-69
2022/12/14 14:11:21;;;;;;;3.60;1.87;;;;;;;;;;5111604;28;20055;-71
2022/12/14 14:13:47;;;;;;;23.37;4.17;;;;;;;;;;5112960;28;20020;-70
2022/12/14 14:16:12;;;;;;;5.13;2.40;;;;;;;;;;5113112;28;20376;-69
2022/12/14 14:18:46;;;;;;;4.20;2.80;;;;;;;;;;5111794;28;20510;-68
2022/12/14 14:21:11;;;;;;;4.37;2.23;;;;;;;;;;5113617;28;20027;-70
2022/12/14 14:23:52;;;;;;;5.17;2.80;;;;;;;;;;5111852;28;20015;-69
2022/12/14 14:26:28;;;;;;;18.07;3.57;;;;;;;;;;5112104;28;20478;-69
2022/12/14 14:29:02;;;;;;;5.23;2.30;;;;;;;;;;5114217;28;20020;-70
2022/12/14 14:31:46;;;;;;;11.23;2.80;;;;;;;;;;5111968;28;20076;-70
2022/12/14 14:34:17;;;;;;;18.20;3.63;;;;;;;;;;5112659;28;20058;-74
2022/12/14 14:36:43;;;;;;;3.50;1.93;;;;;;;;;;5113772;28;20482;-70
2022/12/14 14:39:26;;;;;;;5.07;1.53;;;;;;;;;;5112396;28;20027;-70
2022/12/14 14:41:52;;;;;;;4.30;1.97;;;;;;;;;;5111526;28;20024;-70
2022/12/14 14:44:24;;;;;;;3.40;2.00;;;;;;;;;;5112251;28;20026;-69
2022/12/14 14:46:50;;;;;;;4.73;2.20;;;;;;;;;;5113102;28;20103;-70
2022/12/14 14:49:27;;;;;;;4.13;1.93;;;;;;;;;;5113644;28;20101;-67
2022/12/14 14:51:53;;;;;;;2.47;1.27;;;;;;;;;;5112752;28;20079;-68
2022/12/14 14:54:18;;;;;;;2.93;1.70;;;;;;;;;;5111211;28;20016;-70
2022/12/14 14:56:44;;;;;;;4.20;2.30;;;;;;;;;;5112747;28;20020;-69
2022/12/14 14:59:18;;;;;;;5.60;2.40;;;;;;;;;;5115271;28;20016;-67
2022/12/14 15:01:45;;;;;;;7.50;2.45;;;;;;;;;;5116691;28;20386;-69
2022/12/14 15:04:20;;;;;;;4.63;2.40;;;;;;;;;;5115286;28;20028;-70
2022/12/14 15:06:52;;;;;;;4.40;2.17;;;;;;;;;;5115435;28;20045;-69